Date,TemperatureHighF,TemperatureAvgF,TemperatureLowF,DewpointHighF,DewpointAvgF,DewpointLowF,HumidityHigh,HumidityAvg,HumidityLow,PressureMaxIn,PressureMinIn,WindSpeedMaxMPH,WindSpeedAvgMPH,GustSpeedMaxMPH,PrecipitationSumIn
2013-1-1,22,12,7,-100,-100,-100,0,0,100,0.00,40.00,0,-999,0,0.01
2013-1-2,26,15,9,-100,-100,-100,0,0,100,0.00,40.00,0,-999,0,0.00
2013-1-3,25,17,8,-100,-100,-100,0,0,100,0.00,40.00,0,-999,0,0.00
2013-1-4,30,23,15,-100,-100,-100,0,0,100,0.00,40.00,0,-999,0,0.00
2013-1-5,37,30,23,-100,-100,-100,0,0,100,0.00,40.00,0,-999,0,0.00
2013-1-6,39,34,31,-100,-100,-100,0,0,100,0.00,40.00,0,-999,0,0.00
2013-1-7,38,32,27,-100,-100,-100,0,0,100,0.00,40.00,0,-999,0,0.00
2013-1-8,42,34,27,-100,-100,-100,0,0,100,0.00,40.00,0,-999,0,0.00
2013-1-9,42,36,32,-100,-100,-100,0,0,100,0.00,40.00,0,-999,0,0.00
2013-1-10,35,30,23,-100,-100,-100,0,0,100,0.00,40.00,0,-999,0,0.00
2013-1-11,22,8,-2,-100,-100,-100,0,0,100,0.00,40.00,0,-999,0,0.02
2013-1-12,8,0,-5,-100,-100,-100,0,0,100,0.00,40.00,0,-999,0,0.01
2013-1-13,8,1,-3,-100,-100,-100,0,0,100,0.00,40.00,0,-999,0,0.01
2013-1-14,9,2,-3,-100,-100,-100,0,0,100,0.00,40.00,0,-999,0,0.00
2013-1-15,22,10,-3,-100,-100,-100,0,0,100,0.00,40.00,0,-999,0,0.01
2013-1-16,37,28,19,-100,-100,-100,0,0,100,0.00,40.00,0,-999,0,0.00
2013-1-17,34,28,25,-100,-100,-100,0,0,100,0.00,40.00,0,-999,0,0.00
2013-1-18,41,30,24,-100,-100,-100,0,0,100,0.00,40.00,0,-999,0,0.00
2013-1-19,44,33,25,-100,-100,-100,0,0,100,0.00,40.00,0,-999,0,0.00
2013-1-20,42,33,26,-100,-100,-100,0,0,100,0.00,40.00,0,-999,0,0.00
2013-1-21,43,36,30,-100,-100,-100,0,0,100,0.00,40.00,0,-999,0,0.00
2013-1-22,48,39,31,-100,-100,-100,0,0,100,0.00,40.00,0,-999,0,0.00
2013-1-23,49,41,33,-100,-100,-100,0,0,100,0.00,40.00,0,-999,0,0.00
2013-1-24,41,35,31,-100,-100,-100,0,0,100,0.00,40.00,0,-999,0,0.00
2013-1-25,36,33,31,-100,-100,-100,0,0,100,0.00,40.00,0,-999,0,0.01
2013-1-26,37,34,31,-100,-100,-100,0,0,100,0.00,40.00,0,-999,0,0.04
2013-1-27,33,30,29,-100,-100,-100,0,0,100,0.00,40.00,0,-999,0,0.05
2013-1-28,29,23,13,-100,-100,-100,0,0,100,0.00,40.00,0,-999,0,0.05
2013-1-29,17,10,4,-100,-100,-100,0,0,100,0.00,40.00,0,-999,0,0.01
2013-1-30,20,12,2,-100,-100,-100,0,0,100,0.00,40.00,0,-999,0,0.00
2013-1-31,37,25,15,-100,-100,-100,0,0,100,0.00,40.00,0,-999,0,0.01
2013-2-1,35,25,20,-100,-100,-100,0,0,100,0.00,40.00,0,-999,0,0.00
2013-2-2,40,31,22,-100,-100,-100,0,0,100,0.00,40.00,0,-999,0,0.00
2013-2-3,38,31,24,-100,-100,-100,0,0,100,0.00,40.00,0,-999,0,0.00
2013-2-4,42,30,24,-100,-100,-100,0,0,100,0.00,40.00,0,-999,0,0.01
2013-2-5,45,36,28,-100,-100,-100,0,0,100,0.00,40.00,0,-999,0,0.00
2013-2-6,38,30,24,-100,-100,-100,0,0,100,0.00,40.00,0,-999,0,0.00
2013-2-7,36,28,22,-100,-100,-100,0,0,100,0.00,40.00,0,-999,0,0.00
2013-2-8,36,29,25,-100,-100,-100,0,0,100,0.00,40.00,0,-999,0,0.00
2013-2-9,23,17,13,-100,-100,-100,0,0,100,0.00,40.00,0,-999,0,0.03
2013-2-10,23,15,12,-100,-100,-100,0,0,100,0.00,40.00,0,-999,0,0.03
2013-2-11,20,12,6,-100,-100,-100,0,0,100,0.00,40.00,0,-999,0,0.01
2013-2-12,25,14,5,-100,-100,-100,0,0,100,0.00,40.00,0,-999,0,0.00
2013-2-13,35,24,15,-100,-100,-100,0,0,100,0.00,40.00,0,-999,0,0.00
2013-2-14,36,24,17,-100,-100,-100,0,0,100,0.00,40.00,0,-999,0,0.00
2013-2-15,31,22,13,-100,-100,-100,0,0,100,0.00,40.00,0,-999,0,0.00
2013-2-16,42,30,21,-100,-100,-100,0,0,100,0.00,40.00,0,-999,0,0.00
2013-2-17,36,31,23,-100,-100,-100,0,0,100,0.00,40.00,0,-999,0,0.00
2013-2-18,33,22,10,-100,-100,-100,0,0,100,0.00,40.00,0,-999,0,0.00
2013-2-19,33,27,22,-100,-100,-100,0,0,100,0.00,40.00,0,-999,0,0.00
2013-2-20,27,21,15,-100,-100,-100,0,0,100,0.00,40.00,0,-999,0,0.01
2013-2-21,24,19,15,-100,-100,-100,0,0,100,0.00,40.00,0,-999,0,0.01
2013-2-22,29,15,7,-100,-100,-100,0,0,100,0.00,40.00,0,-999,0,0.01
2013-2-23,27,17,7,-100,-100,-100,0,0,100,0.00,40.00,0,-999,0,0.01
2013-2-24,21,11,4,-100,-100,-100,0,0,100,0.00,40.00,0,-999,0,0.01
2013-2-25,31,20,11,-100,-100,-100,0,0,100,0.00,40.00,0,-999,0,0.01
2013-2-26,22,15,8,-100,-100,-100,0,0,100,0.00,40.00,0,-999,0,0.00
2013-2-27,27,17,11,-100,-100,-100,0,0,100,0.00,40.00,0,-999,0,0.00
2013-2-28,36,22,15,-100,-100,-100,0,0,100,0.00,40.00,0,-999,0,0.00
2013-3-1,46,32,20,-100,-100,-100,0,0,100,0.00,40.00,0,-999,0,0.00
2013-3-2,47,38,31,-100,-100,-100,0,0,100,0.00,40.00,0,-999,0,0.00
2013-3-3,38,35,33,-100,-100,-100,0,0,100,0.00,40.00,0,-999,0,0.01
2013-3-4,38,29,19,-100,-100,-100,0,0,100,0.00,40.00,0,-999,0,0.02
2013-3-5,42,32,21,-100,-100,-100,0,0,100,0.00,40.00,0,-999,0,0.01
2013-3-6,42,36,31,-100,-100,-100,0,0,100,0.00,40.00,0,-999,0,0.00
2013-3-7,43,37,31,-100,-100,-100,0,0,100,0.00,40.00,0,-999,0,0.00
2013-3-8,34,30,24,-100,-100,-100,0,0,100,0.00,40.00,0,-999,0,0.02
2013-3-9,25,20,15,-100,-100,-100,0,0,100,0.00,40.00,0,-999,0,0.03
2013-3-10,38,26,13,-100,-100,-100,0,0,100,0.00,40.00,0,-999,0,0.01
2013-3-11,44,30,24,-100,-100,-100,0,0,100,0.00,40.00,0,-999,0,0.00
2013-3-12,47,34,26,-100,-100,-100,0,0,100,0.00,40.00,0,-999,0,0.00
2013-3-13,51,40,31,-100,-100,-100,0,0,100,0.00,40.00,0,-999,0,0.00
2013-3-14,56,44,35,-100,-100,-100,0,0,100,0.00,40.00,0,-999,0,0.00
2013-3-15,51,44,40,-100,-100,-100,0,0,100,0.00,40.00,0,-999,0,0.00
2013-3-16,47,40,33,-100,-100,-100,0,0,100,0.00,40.00,0,-999,0,0.00
2013-3-17,38,34,30,-100,-100,-100,0,0,100,0.00,40.00,0,-999,0,0.00
2013-3-18,40,31,23,-100,-100,-100,0,0,100,0.00,40.00,0,-999,0,0.00
2013-3-19,40,34,28,-100,-100,-100,0,0,100,0.00,40.00,0,-999,0,0.00
2013-3-20,38,32,28,-100,-100,-100,0,0,100,0.00,40.00,0,-999,0,0.00
2013-3-21,41,34,28,-100,-100,-100,0,0,100,0.00,40.00,0,-999,0,0.01
2013-3-22,38,30,25,-100,-100,-100,0,0,100,0.00,40.00,0,-999,0,0.00
2013-3-23,23,14,6,-100,-100,-100,0,0,100,0.00,40.00,0,-999,0,0.00
2013-3-24,27,15,8,-100,-100,-100,0,0,100,0.00,40.00,0,-999,0,0.00
2013-3-25,34,23,11,-100,-100,-100,0,0,100,0.00,40.00,0,-999,0,0.00
2013-3-26,39,33,26,-100,-100,-100,0,0,100,0.00,40.00,0,-999,0,0.00
2013-3-27,45,38,33,-100,-100,-100,0,0,100,0.00,40.00,0,-999,0,0.00
2013-3-28,46,39,35,-100,-100,-100,0,0,100,0.00,40.00,0,-999,0,0.00
2013-3-29,47,40,36,-100,-100,-100,0,0,100,0.00,40.00,0,-999,0,0.00
2013-3-30,48,40,35,-100,-100,-100,0,0,100,0.00,40.00,0,-999,0,0.00
2013-3-31,49,41,34,-100,-100,-100,0,0,100,0.00,40.00,0,-999,0,0.00
2013-4-1,47,40,35,-100,-100,-100,0,0,100,0.00,40.00,0,-999,0,0.00
2013-4-2,38,33,28,-100,-100,-100,0,0,100,0.00,40.00,0,-999,0,0.00
2013-4-3,48,36,28,-100,-100,-100,0,0,100,0.00,40.00,0,-999,0,0.00
2013-4-4,52,40,33,-100,-100,-100,0,0,100,0.00,40.00,0,-999,0,0.00
2013-4-5,46,42,39,-100,-100,-100,0,0,100,0.00,40.00,0,-999,0,0.00
2013-4-6,49,41,35,-100,-100,-100,0,0,100,0.00,40.00,0,-999,0,0.00
2013-4-7,45,39,34,-100,-100,-100,0,0,100,0.00,40.00,0,-999,0,0.00
2013-4-8,42,35,25,-100,-100,-100,0,0,100,0.00,40.00,0,-999,0,0.01
2013-4-9,32,26,22,-100,-100,-100,0,0,100,0.00,40.00,0,-999,0,0.02
2013-4-10,33,23,18,-100,-100,-100,0,0,100,0.00,40.00,0,-999,0,0.01
2013-4-11,39,32,19,-100,-100,-100,0,0,100,0.00,40.00,0,-999,0,0.00
2013-4-12,46,34,26,-100,-100,-100,0,0,100,0.00,40.00,0,-999,0,0.00
2013-4-13,44,39,35,-100,-100,-100,0,0,100,0.00,40.00,0,-999,0,0.00
2013-4-14,43,37,27,-100,-100,-100,0,0,100,0.00,40.00,0,-999,0,0.01
2013-4-15,46,39,33,-100,-100,-100,0,0,100,0.00,40.00,0,-999,0,0.00
2013-4-16,47,38,32,-100,-100,-100,0,0,100,0.00,40.00,0,-999,0,0.00
2013-4-17,34,25,14,-100,-100,-100,0,0,100,0.00,40.00,0,-999,0,0.01
2013-4-18,27,17,9,-100,-100,-100,0,0,100,0.00,40.00,0,-999,0,0.00
2013-4-19,40,27,16,-100,-100,-100,0,0,100,0.00,40.00,0,-999,0,0.00
2013-4-20,38,32,28,-100,-100,-100,0,0,100,0.00,40.00,0,-999,0,0.00
2013-4-21,44,35,26,-100,-100,-100,0,0,100,0.00,40.00,0,-999,0,0.00
2013-4-22,49,43,38,-100,-100,-100,0,0,100,0.00,40.00,0,-999,0,0.00
2013-4-23,39,34,28,-100,-100,-100,0,0,100,0.00,40.00,0,-999,0,0.00
2013-4-24,45,41,37,-100,-100,-100,0,0,100,0.00,40.00,0,-999,0,0.00
2013-4-25,47,42,37,-100,-100,-100,0,0,100,0.00,40.00,0,-999,0,0.00
2013-4-26,46,40,35,-100,-100,-100,0,0,100,0.00,40.00,0,-999,0,0.00
2013-4-27,53,44,38,-100,-100,-100,0,0,100,0.00,40.00,0,-999,0,0.00
2013-4-28,58,47,38,-100,-100,-100,0,0,100,0.00,40.00,0,-999,0,0.00
2013-4-29,57,51,43,-100,-100,-100,0,0,100,0.00,40.00,0,-999,0,0.00
2013-4-30,58,51,47,-100,-100,-100,0,0,100,0.00,40.00,0,-999,0,0.00
2013-5-1,47,40,28,-100,-100,-100,0,0,100,0.00,40.00,0,-999,0,0.00
2013-5-2,47,35,23,-100,-100,-100,0,0,100,0.00,40.00,0,-999,0,0.00
2013-5-3,50,43,34,-100,-100,-100,0,0,100,0.00,40.00,0,-999,0,0.00
2013-5-4,53,44,37,-100,-100,-100,0,0,100,0.00,40.00,0,-999,0,0.00
2013-5-5,50,44,40,-100,-100,-100,0,0,100,0.00,40.00,0,-999,0,0.00
2013-5-6,42,38,34,-100,-100,-100,0,0,100,0.00,40.00,0,-999,0,0.00
2013-5-7,46,39,34,-100,-100,-100,0,0,100,0.00,40.00,0,-999,0,0.01
2013-5-8,39,34,30,-100,-100,-100,0,0,100,0.00,40.00,0,-999,0,0.02
2013-5-9,36,34,32,-100,-100,-100,0,0,100,0.00,40.00,0,-999,0,0.01
2013-5-10,45,38,34,-100,-100,-100,0,0,100,0.00,40.00,0,-999,0,0.01
2013-5-11,50,42,37,-100,-100,-100,0,0,100,0.00,40.00,0,-999,0,0.00
2013-5-12,58,48,40,-100,-100,-100,0,0,100,0.00,40.00,0,-999,0,0.00
2013-5-13,60,53,47,-100,-100,-100,0,0,100,0.00,40.00,0,-999,0,0.00
2013-5-14,58,52,47,-100,-100,-100,0,0,100,0.00,40.00,0,-999,0,0.00
2013-5-15,61,54,48,-100,-100,-100,0,0,100,0.00,40.00,0,-999,0,0.00
2013-5-16,60,52,45,-100,-100,-100,0,0,100,0.00,40.00,0,-999,0,0.00
2013-5-17,58,50,43,-100,-100,-100,0,0,100,0.00,40.00,0,-999,0,0.00
2013-5-18,51,44,38,-100,-100,-100,0,0,100,0.00,40.00,0,-999,0,0.00
2013-5-19,46,39,33,-100,-100,-100,0,0,100,0.00,40.00,0,-999,0,0.00
2013-5-20,45,37,32,-100,-100,-100,0,0,100,0.00,40.00,0,-999,0,0.01
2013-5-21,55,44,35,-100,-100,-100,0,0,100,0.00,40.00,0,-999,0,0.01
2013-5-22,59,51,42,-100,-100,-100,0,0,100,0.00,40.00,0,-999,0,0.00
2013-5-23,63,54,46,-100,-100,-100,0,0,100,0.00,40.00,0,-999,0,0.00
2013-5-24,60,52,43,-100,-100,-100,0,0,100,0.00,40.00,0,-999,0,0.00
2013-5-25,61,53,44,-100,-100,-100,0,0,100,0.00,40.00,0,-999,0,0.00
2013-5-26,58,52,46,-100,-100,-100,0,0,100,0.00,40.00,0,-999,0,0.00
2013-5-27,56,50,44,-100,-100,-100,0,0,100,0.00,40.00,0,-999,0,0.00
2013-5-28,55,49,43,-100,-100,-100,0,0,100,0.00,40.00,0,-999,0,0.00
2013-5-29,51,42,35,-100,-100,-100,0,0,100,0.00,40.00,0,-999,0,0.00
2013-5-30,55,45,36,-100,-100,-100,0,0,100,0.00,40.00,0,-999,0,0.00
2013-5-31,55,48,42,-100,-100,-100,0,0,100,0.00,40.00,0,-999,0,0.00
2013-6-1,63,50,38,-100,-100,-100,0,0,100,0.00,40.00,0,-999,0,0.00
2013-6-2,63,56,47,-100,-100,-100,0,0,100,0.00,40.00,0,-999,0,0.00
2013-6-3,62,56,50,-100,-100,-100,0,0,100,0.00,40.00,0,-999,0,0.00
2013-6-4,65,58,51,-100,-100,-100,0,0,100,0.00,40.00,0,-999,0,0.00
2013-6-5,67,57,50,-100,-100,-100,0,0,100,0.00,40.00,0,-999,0,0.00
2013-6-6,67,57,50,-100,-100,-100,0,0,100,0.00,40.00,0,-999,0,0.00
2013-6-7,67,56,51,-100,-100,-100,0,0,100,0.00,40.00,0,-999,0,0.00
2013-6-8,70,60,50,-100,-100,-100,0,0,100,0.00,40.00,0,-999,0,0.00
2013-6-9,74,62,51,-100,-100,-100,0,0,100,0.00,40.00,0,-999,0,0.00
2013-6-10,72,65,59,-100,-100,-100,0,0,100,0.00,40.00,0,-999,0,0.00
2013-6-11,67,60,52,-100,-100,-100,0,0,100,0.00,40.00,0,-999,0,0.00
2013-6-12,69,62,56,-100,-100,-100,0,0,100,0.00,40.00,0,-999,0,0.00
2013-6-13,70,62,57,-100,-100,-100,0,0,100,0.00,40.00,0,-999,0,0.00
2013-6-14,66,59,52,-100,-100,-100,0,0,100,0.00,40.00,0,-999,0,0.00
2013-6-15,62,55,49,-100,-100,-100,0,0,100,0.00,40.00,0,-999,0,0.00
2013-6-16,65,59,50,-100,-100,-100,0,0,100,0.00,40.00,0,-999,0,0.00
2013-6-17,66,61,54,-100,-100,-100,0,0,100,0.00,40.00,0,-999,0,0.00
2013-6-18,66,61,54,-100,-100,-100,0,0,100,0.00,40.00,0,-999,0,0.00
2013-6-19,67,60,49,-100,-100,-100,0,0,100,0.00,40.00,0,-999,0,0.00
2013-6-20,62,54,48,-100,-100,-100,0,0,100,0.00,40.00,0,-999,0,0.00
2013-6-22,64,59,50,-100,-100,-100,0,0,100,0.00,40.00,0,-999,0,0.00
2013-6-23,64,60,54,-100,-100,-100,0,0,100,0.00,40.00,0,-999,0,0.00
2013-6-24,62,57,50,-100,-100,-100,0,0,100,0.00,40.00,0,-999,0,0.00
2013-6-25,65,55,47,-100,-100,-100,0,0,100,0.00,40.00,0,-999,0,0.00
2013-6-26,73,64,55,-100,-100,-100,0,0,100,0.00,40.00,0,-999,0,0.00
2013-6-27,80,68,58,-100,-100,-100,0,0,100,0.00,40.00,0,-999,0,0.00
2013-6-28,74,66,60,-100,-100,-100,0,0,100,0.00,40.00,0,-999,0,0.01
2013-6-29,70,62,58,-100,-100,-100,0,0,100,0.00,40.00,0,-999,0,0.01
2013-6-30,72,64,58,-100,-100,-100,0,0,100,0.00,40.00,0,-999,0,0.00
2013-7-1,74,62,55,-100,-100,-100,0,0,100,0.00,40.00,0,-999,0,0.00
2013-7-2,66,60,50,-100,-100,-100,0,0,100,0.00,40.00,0,-999,0,0.00
2013-7-3,73,61,52,-100,-100,-100,0,0,100,0.00,40.00,0,-999,0,0.00
2013-7-4,72,62,55,-100,-100,-100,0,0,100,0.00,40.00,0,-999,0,0.00
2013-7-5,68,62,54,-100,-100,-100,0,0,100,0.00,40.00,0,-999,0,0.00
2013-7-6,71,57,50,-100,-100,-100,0,0,100,0.00,40.00,0,-999,0,0.01
2013-7-7,71,61,50,-100,-100,-100,0,0,100,0.00,40.00,0,-999,0,0.01
2013-7-8,73,61,53,-100,-100,-100,0,0,100,0.00,40.00,0,-999,0,0.00
2013-7-9,76,66,57,-100,-100,-100,0,0,100,0.00,40.00,0,-999,0,0.00
2013-7-10,75,66,60,-100,-100,-100,0,0,100,0.00,40.00,0,-999,0,0.90
2013-7-11,69,62,54,-100,-100,-100,0,0,100,0.00,40.00,0,-999,0,0.01
2013-7-12,66,57,50,-100,-100,-100,0,0,100,0.00,40.00,0,-999,0,0.02
2013-7-13,69,60,51,-100,-100,-100,0,0,100,0.00,40.00,0,-999,0,0.02
2013-7-14,69,59,53,-100,-100,-100,0,0,100,0.00,40.00,0,-999,0,0.01
2013-7-15,63,53,49,-100,-100,-100,0,0,100,0.00,40.00,0,-999,0,0.03
2013-7-16,58,52,48,-100,-100,-100,0,0,100,0.00,40.00,0,-999,0,0.02
2013-7-17,59,54,50,-100,-100,-100,0,0,100,0.00,40.00,0,-999,0,0.01
2013-7-18,62,57,51,-100,-100,-100,0,0,100,0.00,40.00,0,-999,0,0.00
2013-7-19,63,56,50,-100,-100,-100,0,0,100,0.00,40.00,0,-999,0,0.01
2013-7-20,67,56,51,-100,-100,-100,0,0,100,0.00,40.00,0,-999,0,0.04
2013-7-21,67,58,51,-100,-100,-100,0,0,100,0.00,40.00,0,-999,0,0.01
2013-7-22,67,58,51,-100,-100,-100,0,0,100,0.00,40.00,0,-999,0,0.04
2013-7-23,65,59,53,-100,-100,-100,0,0,100,0.00,40.00,0,-999,0,0.03
2013-7-24,71,61,56,-100,-100,-100,0,0,100,0.00,40.00,0,-999,0,0.00
2013-7-25,72,60,50,-100,-100,-100,0,0,100,0.00,40.00,0,-999,0,0.00
2013-7-26,71,62,55,-100,-100,-100,0,0,100,0.00,40.00,0,-999,0,0.00
2013-7-27,64,57,51,-100,-100,-100,0,0,100,0.00,40.00,0,-999,0,0.00
2013-7-28,59,51,47,-100,-100,-100,0,0,100,0.00,40.00,0,-999,0,0.04
2013-7-29,61,53,47,-100,-100,-100,0,0,100,0.00,40.00,0,-999,0,0.01
2013-7-30,67,59,51,-100,-100,-100,0,0,100,0.00,40.00,0,-999,0,0.01
2013-7-31,70,64,55,-100,-100,-100,0,0,100,0.00,40.00,0,-999,0,0.00
2013-8-1,61,56,53,-100,-100,-100,0,0,100,0.00,40.00,0,-999,0,0.01
2013-8-2,68,58,50,-100,-100,-100,0,0,100,0.00,40.00,0,-999,0,0.01
2013-8-3,66,55,50,-100,-100,-100,0,0,100,0.00,40.00,0,-999,0,0.01
2013-8-4,68,61,51,-100,-100,-100,0,0,100,0.00,40.00,0,-999,0,0.01
2013-8-5,63,55,49,-100,-100,-100,0,0,100,0.00,40.00,0,-999,0,0.01
2013-8-6,58,53,49,-100,-100,-100,0,0,100,0.00,40.00,0,-999,0,0.01
2013-8-7,55,50,46,-100,-100,-100,0,0,100,0.00,40.00,0,-999,0,0.01
2013-8-8,53,47,45,-100,-100,-100,0,0,100,0.00,40.00,0,-999,0,0.01
2013-8-9,62,56,49,-100,-100,-100,0,0,100,0.00,40.00,0,-999,0,0.00
2013-8-10,61,52,44,-100,-100,-100,0,0,100,0.00,40.00,0,-999,0,0.02
2013-8-11,61,54,46,-100,-100,-100,0,0,100,0.00,40.00,0,-999,0,0.01
2013-8-17,67,61,54,-100,-100,-100,0,0,100,0.00,40.00,0,-999,0,0.00
2013-8-18,64,61,53,-100,-100,-100,0,0,100,0.00,40.00,0,-999,0,0.00
2013-8-19,68,59,54,-100,-100,-100,0,0,100,0.00,40.00,0,-999,0,0.01
2013-8-20,66,60,55,-100,-100,-100,0,0,100,0.00,40.00,0,-999,0,0.01
2013-8-21,65,55,50,-100,-100,-100,0,0,100,0.00,40.00,0,-999,0,0.00
2013-8-22,66,58,52,-100,-100,-100,0,0,100,0.00,40.00,0,-999,0,0.00
2013-8-23,65,59,53,-100,-100,-100,0,0,100,0.00,40.00,0,-999,0,0.00
2013-8-29,63,58,51,-100,-100,-100,0,0,100,0.00,40.00,0,-999,0,0.01
2013-8-30,66,61,57,-100,-100,-100,0,0,100,0.00,40.00,0,-999,0,0.01
2013-8-31,64,59,56,-100,-100,-100,0,0,100,0.00,40.00,0,-999,0,0.00
2013-9-1,68,61,51,-100,-100,-100,0,0,100,0.00,40.00,0,-999,0,0.00
2013-9-2,66,58,51,-100,-100,-100,0,0,100,0.00,40.00,0,-999,0,0.01
2013-9-3,62,59,57,-100,-100,-100,0,0,100,0.00,40.00,0,-999,0,0.00
2013-9-4,69,62,57,-100,-100,-100,0,0,100,0.00,40.00,0,-999,0,0.00
2013-9-6,69,65,59,-100,-100,-100,0,0,100,0.00,40.00,0,-999,0,0.00
2013-9-7,68,63,55,-100,-100,-100,0,0,100,0.00,40.00,0,-999,0,0.00
2013-9-8,62,56,51,-100,-100,-100,0,0,100,0.00,40.00,0,-999,0,0.00
2013-9-9,60,51,46,-100,-100,-100,0,0,100,0.00,40.00,0,-999,0,0.05
2013-9-10,53,50,48,-100,-100,-100,0,0,100,0.00,40.00,0,-999,0,0.05
2013-9-11,57,51,47,-100,-100,-100,0,0,100,0.00,40.00,0,-999,0,0.01
2013-9-12,54,51,49,-100,-100,-100,0,0,100,0.00,40.00,0,-999,0,0.00
2013-9-13,57,50,46,-100,-100,-100,0,0,100,0.00,40.00,0,-999,0,0.01
2013-9-14,57,49,45,-100,-100,-100,0,0,100,0.00,40.00,0,-999,0,0.01
2013-9-21,59,53,50,-100,-100,-100,0,0,100,0.00,40.00,0,-999,0,0.00
2013-9-22,50,44,34,-100,-100,-100,0,0,100,0.00,40.00,0,-999,0,0.05
2013-9-23,53,40,33,-100,-100,-100,0,0,100,0.00,40.00,0,-999,0,0.01
2013-9-24,59,54,47,-100,-100,-100,0,0,100,0.00,40.00,0,-999,0,0.00
2013-9-25,59,54,47,-100,-100,-100,0,0,100,0.00,40.00,0,-999,0,0.00
2013-9-26,54,48,44,-100,-100,-100,0,0,100,0.00,40.00,0,-999,0,0.00
2013-9-27,47,35,29,-100,-100,-100,0,0,100,0.00,40.00,0,-999,0,0.02
2013-10-2,56,53,46,-100,-100,-100,0,0,100,0.00,40.00,0,-999,0,0.00
2013-10-3,51,47,40,-100,-100,-100,0,0,100,0.00,40.00,0,-999,0,0.00
2013-10-4,40,34,25,-100,-100,-100,0,0,100,0.00,40.00,0,-999,0,0.00
2013-10-5,45,34,24,-100,-100,-100,0,0,100,0.00,40.00,0,-999,0,0.00
2013-10-6,54,48,38,-100,-100,-100,0,0,100,0.00,40.00,0,-999,0,0.00
2013-10-7,56,53,48,-100,-100,-100,0,0,100,0.00,40.00,0,-999,0,0.00
2013-10-8,51,49,45,-100,-100,-100,0,0,100,0.00,40.00,0,-999,0,0.00
2013-10-9,47,44,41,-100,-100,-100,0,0,100,0.00,40.00,0,-999,0,0.00
2013-10-10,43,36,30,-100,-100,-100,0,0,100,0.00,40.00,0,-999,0,0.04
2013-10-11,35,31,28,-100,-100,-100,0,0,100,0.00,40.00,0,-999,0,0.01
2013-10-12,46,36,30,-100,-100,-100,0,0,100,0.00,40.00,0,-999,0,0.00
2013-10-13,47,43,39,-100,-100,-100,0,0,100,0.00,40.00,0,-999,0,0.00
2013-10-21,39,38,38,-100,-100,-100,0,0,100,0.00,40.00,0,-999,0,0.00
2013-10-22,50,44,40,-100,-100,-100,0,0,100,0.00,40.00,0,-999,0,0.00
2013-10-24,51,45,40,-100,-100,-100,0,0,100,0.00,40.00,0,-999,0,0.00
2013-10-25,40,38,34,-100,-100,-100,0,0,100,0.00,40.00,0,-999,0,0.01
2013-10-26,39,38,38,-100,-100,-100,0,0,100,0.00,40.00,0,-999,0,0.00
2013-10-27,41,41,41,-100,-100,-100,0,0,100,0.00,40.00,0,-999,0,0.00
2013-11-13,43,42,40,-100,-100,-100,0,0,100,0.00,40.00,0,-999,0,0.00
2013-11-14,41,38,35,-100,-100,-100,0,0,100,0.00,40.00,0,-999,0,0.00
2013-11-15,38,36,34,-100,-100,-100,0,0,100,0.00,40.00,0,-999,0,0.00
2013-11-16,29,28,27,-100,-100,-100,0,0,100,0.00,40.00,0,-999,0,0.00
2013-11-17,38,38,38,-100,-100,-100,0,0,100,0.00,40.00,0,-999,0,0.00
2013-11-18,46,42,36,-100,-100,-100,0,0,100,0.00,40.00,0,-999,0,0.00
2013-11-19,37,35,32,-100,-100,-100,0,0,100,0.00,40.00,0,-999,0,0.00
2013-11-20,32,30,29,-100,-100,-100,0,0,100,0.00,40.00,0,-999,0,0.02
2013-11-21,34,32,30,-100,-100,-100,0,0,100,0.00,40.00,0,-999,0,0.01
2013-11-22,35,32,30,-100,-100,-100,0,0,100,0.00,40.00,0,-999,0,0.00
2013-11-23,36,33,28,-100,-100,-100,0,0,100,0.00,40.00,0,-999,0,0.01
2013-11-24,27,23,21,-100,-100,-100,0,0,100,0.00,40.00,0,-999,0,0.01
2013-11-28,41,39,37,-100,-100,-100,0,0,100,0.00,40.00,0,-999,0,0.00
2013-11-29,37,36,36,-100,-100,-100,0,0,100,0.00,40.00,0,-999,0,0.00
2013-11-30,39,32,28,-100,-100,-100,0,0,100,0.00,40.00,0,-999,0,0.00
2013-12-1,39,32,27,-100,-100,-100,0,0,100,0.00,40.00,0,-999,0,0.00
2013-12-2,40,37,32,-100,-100,-100,0,0,100,0.00,40.00,0,-999,0,0.00
2013-12-3,32,32,31,-100,-100,-100,0,0,100,0.00,40.00,0,-999,0,0.00
2013-12-4,29,20,8,-100,-100,-100,0,0,100,0.00,40.00,0,-999,0,0.02
2013-12-9,11,4,-3,-100,-100,-100,0,0,100,0.00,40.00,0,-999,0,0.00
2013-12-10,28,24,17,-100,-100,-100,0,0,100,0.00,40.00,0,-999,0,0.00
2013-12-11,31,31,31,-100,-100,-100,0,0,100,0.00,40.00,0,-999,0,0.00
2013-12-13,35,29,22,-100,-100,-100,0,0,100,0.00,40.00,0,-999,0,0.00
2013-12-14,31,31,31,-100,-100,-100,0,0,100,0.00,40.00,0,-999,0,0.00
2013-12-15,31,31,31,-100,-100,-100,0,0,100,0.00,40.00,0,-999,0,0.00
2013-12-16,45,36,32,-100,-100,-100,0,0,100,0.00,40.00,0,-999,0,0.00
2013-12-19,35,31,27,-100,-100,-100,0,0,100,0.00,40.00,0,-999,0,0.00
2013-12-25,34,34,34,-100,-100,-100,0,0,100,0.00,40.00,0,-999,0,0.00
2013-12-26,41,37,32,-100,-100,-100,0,0,100,0.00,40.00,0,-999,0,0.00
2013-12-28,29,29,29,-100,-100,-100,0,0,100,0.00,40.00,0,-999,0,0.00
2013-12-30,33,29,25,-100,-100,-100,0,0,100,0.00,40.00,0,-999,0,0.00
2013-12-31,37,32,28,-100,-100,-100,0,0,100,0.00,40.00,0,-999,0,0.00